sensor_id;sensor_type;location;lat;lon;timestamp;pressure;altitude;pressure_sealevel;temperature;humidity
59825;BME280;45703;50.898;6.054;2024-03-23T00:53:46;99620.19;;;6.59;100.00
59825;BME280;45703;50.898;6.054;2024-03-23T00:56:11;99616.34;;;6.55;100.00
59825;BME280;45703;50.898;6.054;2024-03-23T00:58:37;99630.88;;;6.46;100.00
59825;BME280;45703;50.898;6.054;2024-03-23T01:01:02;99629.06;;;6.40;100.00
59825;BME280;45703;50.898;6.054;2024-03-23T01:03:29;99606.00;;;6.34;100.00
59825;BME280;45703;50.898;6.054;2024-03-23T01:05:59;99621.53;;;6.24;100.00
59825;BME280;45703;50.898;6.054;2024-03-23T01:08:24;99615.25;;;6.12;100.00
59825;BME280;45703;50.898;6.054;2024-03-23T01:10:57;99624.03;;;6.06;100.00
59825;BME280;45703;50.898;6.054;2024-03-23T01:13:22;99633.03;;;5.86;100.00
59825;BME280;45703;50.898;6.054;2024-03-23T01:15:49;99617.53;;;5.76;100.00
59825;BME280;45703;50.898;6.054;2024-03-23T01:18:15;99628.34;;;5.75;100.00
59825;BME280;45703;50.898;6.054;2024-03-23T01:20:40;99629.75;;;5.64;100.00
59825;BME280;45703;50.898;6.054;2024-03-23T01:23:06;99620.81;;;5.53;100.00
59825;BME280;45703;50.898;6.054;2024-03-23T01:25:31;99620.19;;;5.44;100.00
59825;BME280;45703;50.898;6.054;2024-03-23T01:27:56;99621.00;;;5.45;100.00
59825;BME280;45703;50.898;6.054;2024-03-23T01:30:22;99605.53;;;5.42;100.00
59825;BME280;45703;50.898;6.054;2024-03-23T01:32:47;99610.22;;;5.40;100.00
59825;BME280;45703;50.898;6.054;2024-03-23T01:35:12;99615.94;;;5.37;100.00
59825;BME280;45703;50.898;6.054;2024-03-23T01:37:38;99628.16;;;5.38;100.00
59825;BME280;45703;50.898;6.054;2024-03-23T01:40:03;99609.63;;;5.38;100.00
59825;BME280;45703;50.898;6.054;2024-03-23T01:42:29;99614.28;;;5.42;100.00
59825;BME280;45703;50.898;6.054;2024-03-23T01:44:54;99602.69;;;5.37;100.00
59825;BME280;45703;50.898;6.054;2024-03-23T01:47:20;99605.94;;;5.39;100.00
59825;BME280;45703;50.898;6.054;2024-03-23T01:49:45;99602.28;;;5.40;100.00
59825;BME280;45703;50.898;6.054;2024-03-23T01:52:11;99603.91;;;5.41;100.00
59825;BME280;45703;50.898;6.054;2024-03-23T01:54:36;99589.47;;;5.37;100.00
59825;BME280;45703;50.898;6.054;2024-03-23T01:57:03;99588.03;;;5.34;100.00
59825;BME280;45703;50.898;6.054;2024-03-23T01:59:29;99602.28;;;5.40;100.00
59825;BME280;45703;50.898;6.054;2024-03-23T02:01:54;99603.09;;;5.40;100.00
59825;BME280;45703;50.898;6.054;2024-03-23T02:04:20;99610.22;;;5.40;100.00
59825;BME280;45703;50.898;6.054;2024-03-23T02:06:45;99612.25;;;5.38;100.00
59825;BME280;45703;50.898;6.054;2024-03-23T02:09:11;99615.09;;;5.43;100.00
59825;BME280;45703;50.898;6.054;2024-03-23T02:11:36;99601.28;;;5.41;100.00
59825;BME280;45703;50.898;6.054;2024-03-23T02:14:02;99599.44;;;5.48;100.00
59825;BME280;45703;50.898;6.054;2024-03-23T02:16:27;99610.63;;;5.50;100.00
59825;BME280;45703;50.898;6.054;2024-03-23T02:18:52;99606.97;;;5.51;100.00
59825;BME280;45703;50.898;6.054;2024-03-23T02:21:18;99610.81;;;5.55;100.00
59825;BME280;45703;50.898;6.054;2024-03-23T02:23:43;99615.72;;;5.58;100.00
59825;BME280;45703;50.898;6.054;2024-03-23T02:26:08;99607.78;;;5.64;100.00
59825;BME280;45703;50.898;6.054;2024-03-23T02:28:34;99591.06;;;5.63;100.00
59825;BME280;45703;50.898;6.054;2024-03-23T02:30:59;99598.41;;;5.68;100.00
59825;BME280;45703;50.898;6.054;2024-03-23T02:33:26;99591.47;;;5.67;100.00
59825;BME280;45703;50.898;6.054;2024-03-23T02:35:55;99580.06;;;5.66;100.00
59825;BME280;45703;50.898;6.054;2024-03-23T02:38:21;99579.88;;;5.68;100.00
59825;BME280;45703;50.898;6.054;2024-03-23T02:40:46;99580.66;;;5.68;100.00
59825;BME280;45703;50.898;6.054;2024-03-23T02:43:12;99591.06;;;5.70;100.00
59825;BME280;45703;50.898;6.054;2024-03-23T02:45:37;99591.88;;;5.70;100.00
59825;BME280;45703;50.898;6.054;2024-03-23T02:48:03;99594.50;;;5.70;100.00
59825;BME280;45703;50.898;6.054;2024-03-23T02:50:29;99586.16;;;5.73;100.00
59825;BME280;45703;50.898;6.054;2024-03-23T02:52:54;99565.56;;;5.75;100.00
59825;BME280;45703;50.898;6.054;2024-03-23T02:55:19;99547.47;;;5.72;100.00
59825;BME280;45703;50.898;6.054;2024-03-23T02:57:45;99561.72;;;5.71;100.00
59825;BME280;45703;50.898;6.054;2024-03-23T03:00:10;99545.41;;;5.74;100.00
59825;BME280;45703;50.898;6.054;2024-03-23T03:02:36;99545.81;;;5.71;100.00
59825;BME280;45703;50.898;6.054;2024-03-23T03:05:03;99547.47;;;5.72;100.00
59825;BME280;45703;50.898;6.054;2024-03-23T03:07:30;99538.50;;;5.73;100.00
59825;BME280;45703;50.898;6.054;2024-03-23T03:09:55;99544.19;;;5.70;100.00
59825;BME280;45703;50.898;6.054;2024-03-23T03:12:21;99549.91;;;5.74;100.00
59825;BME280;45703;50.898;6.054;2024-03-23T03:14:46;99557.06;;;5.80;100.00
59825;BME280;45703;50.898;6.054;2024-03-23T03:17:12;99567.03;;;5.78;100.00
59825;BME280;45703;50.898;6.054;2024-03-23T03:19:37;99580.06;;;5.79;100.00
59825;BME280;45703;50.898;6.054;2024-03-23T03:22:02;99587.00;;;5.80;100.00
59825;BME280;45703;50.898;6.054;2024-03-23T03:24:29;99576.41;;;5.80;100.00
59825;BME280;45703;50.898;6.054;2024-03-23T03:26:55;99586.56;;;5.83;100.00
59825;BME280;45703;50.898;6.054;2024-03-23T03:29:20;99581.50;;;5.82;100.00
59825;BME280;45703;50.898;6.054;2024-03-23T03:31:45;99583.94;;;5.83;100.00
59825;BME280;45703;50.898;6.054;2024-03-23T03:34:11;99586.78;;;5.82;100.00
59825;BME280;45703;50.898;6.054;2024-03-23T03:36:36;99594.75;;;5.82;100.00
59825;BME280;45703;50.898;6.054;2024-03-23T03:39:02;99587.41;;;5.84;100.00
59825;BME280;45703;50.898;6.054;2024-03-23T03:41:28;99582.91;;;5.84;100.00
59825;BME280;45703;50.898;6.054;2024-03-23T03:43:54;99582.91;;;5.84;100.00
59825;BME280;45703;50.898;6.054;2024-03-23T03:46:20;99578.03;;;5.81;100.00
59825;BME280;45703;50.898;6.054;2024-03-23T03:48:45;99575.38;;;5.81;100.00
59825;BME280;45703;50.898;6.054;2024-03-23T03:51:13;99576.41;;;5.80;100.00
59825;BME280;45703;50.898;6.054;2024-03-23T03:53:38;99584.53;;;5.85;100.00
59825;BME280;45703;50.898;6.054;2024-03-23T03:56:03;99589.81;;;5.85;100.00
59825;BME280;45703;50.898;6.054;2024-03-23T03:58:29;99569.66;;;5.84;100.00
59825;BME280;45703;50.898;6.054;2024-03-23T04:00:54;99563.16;;;5.80;100.00
59825;BME280;45703;50.898;6.054;2024-03-23T04:03:20;99572.72;;;5.81;100.00
59825;BME280;45703;50.898;6.054;2024-03-23T04:05:52;99566.19;;;5.77;100.00
59825;BME280;45703;50.898;6.054;2024-03-23T04:08:18;99578.03;;;5.81;100.00
59825;BME280;45703;50.898;6.054;2024-03-23T04:10:44;99575.59;;;5.80;100.00
59825;BME280;45703;50.898;6.054;2024-03-23T04:13:09;99566.81;;;5.73;100.00
59825;BME280;45703;50.898;6.054;2024-03-23T04:15:34;99569.47;;;5.73;100.00
59825;BME280;45703;50.898;6.054;2024-03-23T04:18:00;99573.13;;;5.72;100.00
59825;BME280;45703;50.898;6.054;2024-03-23T04:20:25;99569.06;;;5.69;100.00
59825;BME280;45703;50.898;6.054;2024-03-23T04:22:50;99571.09;;;5.67;100.00
59825;BME280;45703;50.898;6.054;2024-03-23T04:25:16;99571.50;;;5.64;100.00
59825;BME280;45703;50.898;6.054;2024-03-23T04:27:41;99564.81;;;5.62;100.00
59825;BME280;45703;50.898;6.054;2024-03-23T04:30:07;99566.44;;;5.63;100.00
59825;BME280;45703;50.898;6.054;2024-03-23T04:32:37;99564.16;;;5.60;100.00
59825;BME280;45703;50.898;6.054;2024-03-23T04:35:02;99569.09;;;5.63;100.00
59825;BME280;45703;50.898;6.054;2024-03-23T04:37:37;99564.16;;;5.60;100.00
59825;BME280;45703;50.898;6.054;2024-03-23T04:40:03;99559.91;;;5.59;100.00
59825;BME280;45703;50.898;6.054;2024-03-23T04:42:31;99562.97;;;5.63;100.00
59825;BME280;45703;50.898;6.054;2024-03-23T04:44:56;99562.75;;;5.58;100.00
59825;BME280;45703;50.898;6.054;2024-03-23T04:47:22;99559.72;;;5.61;100.00
59825;BME280;45703;50.898;6.054;2024-03-23T04:49:48;99565.59;;;5.63;100.00
59825;BME280;45703;50.898;6.054;2024-03-23T04:52:13;99570.09;;;5.62;100.00
59825;BME280;45703;50.898;6.054;2024-03-23T04:54:39;99576.38;;;5.61;100.00
59825;BME280;45703;50.898;6.054;2024-03-23T04:57:07;99571.09;;;5.61;100.00
59825;BME280;45703;50.898;6.054;2024-03-23T04:59:32;99572.94;;;5.61;100.00
59825;BME280;45703;50.898;6.054;2024-03-23T05:01:58;99565.78;;;5.61;100.00
59825;BME280;45703;50.898;6.054;2024-03-23T05:04:23;99558.69;;;5.62;100.00
59825;BME280;45703;50.898;6.054;2024-03-23T05:06:49;99554.63;;;5.53;100.00
59825;BME280;45703;50.898;6.054;2024-03-23T05:09:14;99569.50;;;5.54;100.00
59825;BME280;45703;50.898;6.054;2024-03-23T05:11:40;99570.31;;;5.48;100.00
59825;BME280;45703;50.898;6.054;2024-03-23T05:14:05;99567.66;;;5.48;100.00
59825;BME280;45703;50.898;6.054;2024-03-23T05:16:31;99563.00;;;5.37;100.00
59825;BME280;45703;50.898;6.054;2024-03-23T05:18:56;99580.50;;;5.38;100.00
59825;BME280;45703;50.898;6.054;2024-03-23T05:21:21;99569.06;;;5.31;100.00
59825;BME280;45703;50.898;6.054;2024-03-23T05:23:47;99563.81;;;5.24;100.00
59825;BME280;45703;50.898;6.054;2024-03-23T05:26:13;99567.44;;;5.17;100.00
59825;BME280;45703;50.898;6.054;2024-03-23T05:28:38;99571.75;;;5.11;100.00
59825;BME280;45703;50.898;6.054;2024-03-23T05:31:04;99570.72;;;5.06;100.00
59825;BME280;45703;50.898;6.054;2024-03-23T05:33:29;99574.38;;;5.05;100.00
59825;BME280;45703;50.898;6.054;2024-03-23T05:35:58;99571.53;;;5.00;100.00
59825;BME280;45703;50.898;6.054;2024-03-23T05:38:24;99577.63;;;4.94;100.00
59825;BME280;45703;50.898;6.054;2024-03-23T05:40:54;99589.41;;;4.98;100.00
59825;BME280;45703;50.898;6.054;2024-03-23T05:43:19;99577.00;;;4.92;100.00
59825;BME280;45703;50.898;6.054;2024-03-23T05:45:44;99588.81;;;4.96;100.00
59825;BME280;45703;50.898;6.054;2024-03-23T05:48:10;99588.41;;;4.99;100.00
59825;BME280;45703;50.898;6.054;2024-03-23T05:50:35;99586.16;;;4.96;100.00
59825;BME280;45703;50.898;6.054;2024-03-23T05:53:01;99585.34;;;4.89;100.00
59825;BME280;45703;50.898;6.054;2024-03-23T05:55:26;99591.44;;;4.96;100.00
59825;BME280;45703;50.898;6.054;2024-03-23T05:57:52;99577.63;;;4.94;100.00
59825;BME280;45703;50.898;6.054;2024-03-23T06:00:18;99578.84;;;5.04;100.00
59825;BME280;45703;50.898;6.054;2024-03-23T06:02:43;99587.00;;;5.16;100.00
59825;BME280;45703;50.898;6.054;2024-03-23T06:05:11;99584.94;;;5.18;100.00
59825;BME280;45703;50.898;6.054;2024-03-23T06:07:37;99582.09;;;5.26;100.00
59825;BME280;45703;50.898;6.054;2024-03-23T06:10:03;99588.41;;;5.25;100.00
59825;BME280;45703;50.898;6.054;2024-03-23T06:12:29;99604.91;;;5.27;100.00
59825;BME280;45703;50.898;6.054;2024-03-23T06:14:54;99608.56;;;5.26;100.00
59825;BME280;45703;50.898;6.054;2024-03-23T06:17:19;99612.44;;;5.30;100.00
59825;BME280;45703;50.898;6.054;2024-03-23T06:19:45;99597.97;;;5.26;100.00
59825;BME280;45703;50.898;6.054;2024-03-23T06:22:10;99604.09;;;5.33;100.00
59825;BME280;45703;50.898;6.054;2024-03-23T06:24:35;99603.31;;;5.39;100.00
59825;BME280;45703;50.898;6.054;2024-03-23T06:27:01;99606.56;;;5.41;100.00
59825;BME280;45703;50.898;6.054;2024-03-23T06:29:26;99603.50;;;5.50;100.00
59825;BME280;45703;50.898;6.054;2024-03-23T06:31:53;99611.44;;;5.57;100.00
59825;BME280;45703;50.898;6.054;2024-03-23T06:34:19;99617.13;;;5.66;100.00
59825;BME280;45703;50.898;6.054;2024-03-23T06:36:46;99620.38;;;5.75;100.00
59825;BME280;45703;50.898;6.054;2024-03-23T06:39:12;99620.59;;;5.86;100.00
59825;BME280;45703;50.898;6.054;2024-03-23T06:41:38;99628.53;;;5.99;100.00
59825;BME280;45703;50.898;6.054;2024-03-23T06:44:04;99624.41;;;6.23;100.00
59825;BME280;45703;50.898;6.054;2024-03-23T06:46:29;99637.19;;;6.45;100.00
59825;BME280;45703;50.898;6.054;2024-03-23T06:48:55;99647.94;;;6.63;100.00
59825;BME280;45703;50.898;6.054;2024-03-23T06:51:20;99650.91;;;6.23;100.00
59825;BME280;45703;50.898;6.054;2024-03-23T06:53:45;99644.38;;;5.22;100.00
59825;BME280;45703;50.898;6.054;2024-03-23T06:56:11;99638.91;;;4.57;100.00
59825;BME280;45703;50.898;6.054;2024-03-23T06:58:36;99597.25;;;4.12;100.00
59825;BME280;45703;50.898;6.054;2024-03-23T07:01:01;99603.16;;;4.14;100.00
59825;BME280;45703;50.898;6.054;2024-03-23T07:03:27;99617.97;;;4.15;100.00
59825;BME280;45703;50.898;6.054;2024-03-23T07:05:52;99635.13;;;4.25;100.00
59825;BME280;45703;50.898;6.054;2024-03-23T07:08:18;99629.84;;;4.25;100.00
59825;BME280;45703;50.898;6.054;2024-03-23T07:10:47;99630.69;;;4.32;100.00
59825;BME280;45703;50.898;6.054;2024-03-23T07:13:12;99629.03;;;4.31;100.00
59825;BME280;45703;50.898;6.054;2024-03-23T07:15:38;99632.75;;;4.37;100.00
59825;BME280;45703;50.898;6.054;2024-03-23T07:18:03;99641.69;;;4.42;100.00
59825;BME280;45703;50.898;6.054;2024-03-23T07:20:28;99633.19;;;4.47;100.00
59825;BME280;45703;50.898;6.054;2024-03-23T07:22:56;99634.88;;;4.61;100.00
59825;BME280;45703;50.898;6.054;2024-03-23T07:25:22;99628.38;;;4.70;100.00
59825;BME280;45703;50.898;6.054;2024-03-23T07:27:48;99628.06;;;4.86;100.00
59825;BME280;45703;50.898;6.054;2024-03-23T07:30:14;99636.84;;;5.06;100.00
59825;BME280;45703;50.898;6.054;2024-03-23T07:32:39;99638.88;;;5.17;100.00
59825;BME280;45703;50.898;6.054;2024-03-23T07:35:05;99640.34;;;5.39;100.00
59825;BME280;45703;50.898;6.054;2024-03-23T07:37:30;99625.50;;;5.51;100.00
59825;BME280;45703;50.898;6.054;2024-03-23T07:39:56;99644.41;;;5.73;100.00
59825;BME280;45703;50.898;6.054;2024-03-23T07:42:22;99629.97;;;5.89;100.00
59825;BME280;45703;50.898;6.054;2024-03-23T07:44:48;99638.69;;;6.09;100.00
59825;BME280;45703;50.898;6.054;2024-03-23T07:47:14;99634.13;;;6.42;100.00
59825;BME280;45703;50.898;6.054;2024-03-23T07:49:39;99640.59;;;6.59;100.00
59825;BME280;45703;50.898;6.054;2024-03-23T07:52:05;99645.03;;;6.71;100.00
59825;BME280;45703;50.898;6.054;2024-03-23T07:54:30;99649.25;;;6.85;100.00
59825;BME280;45703;50.898;6.054;2024-03-23T07:56:56;99649.16;;;7.05;100.00
59825;BME280;45703;50.898;6.054;2024-03-23T07:59:21;99643.97;;;7.16;100.00
59825;BME280;45703;50.898;6.054;2024-03-23T08:01:46;99645.09;;;7.33;100.00
59825;BME280;45703;50.898;6.054;2024-03-23T08:04:12;99657.31;;;7.40;100.00
59825;BME280;45703;50.898;6.054;2024-03-23T08:06:38;99650.31;;;7.46;100.00
59825;BME280;45703;50.898;6.054;2024-03-23T08:09:03;99644.94;;;7.52;100.00
59825;BME280;45703;50.898;6.054;2024-03-23T08:11:30;99641.06;;;7.55;100.00
59825;BME280;45703;50.898;6.054;2024-03-23T08:13:56;99639.22;;;7.55;100.00
59825;BME280;45703;50.898;6.054;2024-03-23T08:16:22;99632.97;;;7.68;100.00
59825;BME280;45703;50.898;6.054;2024-03-23T08:18:48;99627.63;;;7.74;100.00
59825;BME280;45703;50.898;6.054;2024-03-23T08:21:13;99616.16;;;7.74;100.00
59825;BME280;45703;50.898;6.054;2024-03-23T08:23:39;99613.97;;;7.89;100.00
59825;BME280;45703;50.898;6.054;2024-03-23T08:26:09;99619.28;;;7.89;100.00
59825;BME280;45703;50.898;6.054;2024-03-23T08:28:36;99614.91;;;8.01;100.00
59825;BME280;45703;50.898;6.054;2024-03-23T08:31:03;99613.34;;;8.11;100.00
59825;BME280;45703;50.898;6.054;2024-03-23T08:33:30;99598.22;;;8.12;100.00
59825;BME280;45703;50.898;6.054;2024-03-23T08:35:57;99605.19;;;8.31;100.00
59825;BME280;45703;50.898;6.054;2024-03-23T08:38:23;99596.06;;;8.45;100.00
59825;BME280;45703;50.898;6.054;2024-03-23T08:41:08;99605.50;;;8.58;100.00
59825;BME280;45703;50.898;6.054;2024-03-23T08:43:39;99604.31;;;8.55;100.00
59825;BME280;45703;50.898;6.054;2024-03-23T08:46:08;99598.16;;;8.54;100.00
59825;BME280;45703;50.898;6.054;2024-03-23T08:48:36;99604.13;;;8.67;100.00
59825;BME280;45703;50.898;6.054;2024-03-23T08:51:02;99606.63;;;8.80;100.00
59825;BME280;45703;50.898;6.054;2024-03-23T08:53:28;99600.91;;;8.95;100.00
59825;BME280;45703;50.898;6.054;2024-03-23T08:55:59;99602.41;;;8.91;100.00
59825;BME280;45703;50.898;6.054;2024-03-23T08:58:26;99585.19;;;8.75;100.00
59825;BME280;45703;50.898;6.054;2024-03-23T09:00:55;99586.47;;;8.73;100.00
59825;BME280;45703;50.898;6.054;2024-03-23T09:03:24;99591.50;;;8.92;100.00
59825;BME280;45703;50.898;6.054;2024-03-23T09:05:50;99596.28;;;9.02;100.00
59825;BME280;45703;50.898;6.054;2024-03-23T09:08:15;99586.44;;;8.91;100.00
59825;BME280;45703;50.898;6.054;2024-03-23T09:10:41;99586.72;;;9.12;100.00
59825;BME280;45703;50.898;6.054;2024-03-23T09:13:07;99581.19;;;9.25;100.00
59825;BME280;45703;50.898;6.054;2024-03-23T09:15:44;99584.56;;;9.32;100.00
59825;BME280;45703;50.898;6.054;2024-03-23T09:18:10;99583.72;;;9.20;100.00
59825;BME280;45703;50.898;6.054;2024-03-23T09:20:35;99570.72;;;9.01;100.00
59825;BME280;45703;50.898;6.054;2024-03-23T09:23:01;99580.69;;;9.05;100.00
59825;BME280;45703;50.898;6.054;2024-03-23T09:25:26;99582.19;;;9.01;100.00
59825;BME280;45703;50.898;6.054;2024-03-23T09:27:51;99578.97;;;8.81;100.00
59825;BME280;45703;50.898;6.054;2024-03-23T09:30:17;99581.75;;;8.86;100.00
59825;BME280;45703;50.898;6.054;2024-03-23T09:32:43;99579.56;;;8.83;100.00
59825;BME280;45703;50.898;6.054;2024-03-23T09:35:09;99574.81;;;8.85;100.00
59825;BME280;45703;50.898;6.054;2024-03-23T09:37:35;99583.22;;;9.00;100.00
59825;BME280;45703;50.898;6.054;2024-03-23T09:40:00;99578.66;;;9.19;100.00
59825;BME280;45703;50.898;6.054;2024-03-23T09:42:26;99572.88;;;9.33;100.00
59825;BME280;45703;50.898;6.054;2024-03-23T09:44:52;99588.31;;;9.66;100.00
59825;BME280;45703;50.898;6.054;2024-03-23T09:47:18;99571.19;;;9.73;100.00
59825;BME280;45703;50.898;6.054;2024-03-23T09:49:48;99568.06;;;9.99;100.00
59825;BME280;45703;50.898;6.054;2024-03-23T09:52:17;99563.97;;;10.31;100.00
59825;BME280;45703;50.898;6.054;2024-03-23T09:55:08;99566.81;;;10.41;100.00
59825;BME280;45703;50.898;6.054;2024-03-23T09:57:37;99564.88;;;10.48;100.00
59825;BME280;45703;50.898;6.054;2024-03-23T10:00:08;99588.66;;;10.38;100.00
59825;BME280;45703;50.898;6.054;2024-03-23T10:02:34;99574.03;;;10.40;100.00
59825;BME280;45703;50.898;6.054;2024-03-23T10:05:22;99564.22;;;10.18;100.00
59825;BME280;45703;50.898;6.054;2024-03-23T10:07:49;99564.00;;;10.08;100.00
59825;BME280;45703;50.898;6.054;2024-03-23T10:10:15;99567.00;;;10.00;100.00
59825;BME280;45703;50.898;6.054;2024-03-23T10:12:49;99568.63;;;10.12;100.00
59825;BME280;45703;50.898;6.054;2024-03-23T10:15:24;99569.44;;;9.90;100.00
59825;BME280;45703;50.898;6.054;2024-03-23T10:17:50;99558.88;;;9.61;100.00
59825;BME280;45703;50.898;6.054;2024-03-23T10:20:22;99566.19;;;9.54;100.00
59825;BME280;45703;50.898;6.054;2024-03-23T10:22:51;99569.22;;;9.57;100.00
59825;BME280;45703;50.898;6.054;2024-03-23T10:25:17;99565.72;;;9.57;100.00
59825;BME280;45703;50.898;6.054;2024-03-23T10:27:43;99558.09;;;9.60;100.00
59825;BME280;45703;50.898;6.054;2024-03-23T10:30:13;99552.63;;;9.44;100.00
59825;BME280;45703;50.898;6.054;2024-03-23T10:32:40;99557.13;;;9.43;100.00
59825;BME280;45703;50.898;6.054;2024-03-23T10:35:19;99551.25;;;9.64;100.00
59825;BME280;45703;50.898;6.054;2024-03-23T10:37:47;99555.75;;;9.64;100.00
59825;BME280;45703;50.898;6.054;2024-03-23T10:40:15;99557.97;;;9.55;100.00
59825;BME280;45703;50.898;6.054;2024-03-23T10:42:41;99549.63;;;9.52;100.00
59825;BME280;45703;50.898;6.054;2024-03-23T10:45:07;99553.06;;;9.29;100.00
59825;BME280;45703;50.898;6.054;2024-03-23T10:47:37;99553.97;;;9.23;100.00
59825;BME280;45703;50.898;6.054;2024-03-23T10:50:05;99550.75;;;9.21;100.00
59825;BME280;45703;50.898;6.054;2024-03-23T10:52:33;99542.88;;;9.26;100.00
59825;BME280;45703;50.898;6.054;2024-03-23T10:54:59;99549.84;;;9.39;100.00
59825;BME280;45703;50.898;6.054;2024-03-23T10:57:44;99540.72;;;9.46;100.00
59825;BME280;45703;50.898;6.054;2024-03-23T11:00:11;99539.41;;;9.37;100.00
59825;BME280;45703;50.898;6.054;2024-03-23T11:02:37;99549.16;;;9.32;100.00
59825;BME280;45703;50.898;6.054;2024-03-23T11:07:51;99551.38;;;9.46;100.00
59825;BME280;45703;50.898;6.054;2024-03-23T11:10:27;99549.06;;;9.61;100.00
59825;BME280;45703;50.898;6.054;2024-03-23T11:12:57;99561.78;;;9.82;100.00
59825;BME280;45703;50.898;6.054;2024-03-23T11:15:22;99557.03;;;9.84;100.00
59825;BME280;45703;50.898;6.054;2024-03-23T11:18:06;99549.50;;;9.47;100.00
59825;BME280;45703;50.898;6.054;2024-03-23T11:20:35;99545.75;;;9.13;100.00
59825;BME280;45703;50.898;6.054;2024-03-23T11:23:00;99561.50;;;9.26;100.00
59825;BME280;45703;50.898;6.054;2024-03-23T11:25:27;99556.78;;;9.40;100.00
59825;BME280;45703;50.898;6.054;2024-03-23T11:27:58;99560.41;;;9.45;100.00
59825;BME280;45703;50.898;6.054;2024-03-23T11:30:27;99537.44;;;9.56;100.00
59825;BME280;45703;50.898;6.054;2024-03-23T11:32:55;99552.63;;;9.67;100.00
59825;BME280;45703;50.898;6.054;2024-03-23T11:35:32;99559.22;;;9.87;100.00
59825;BME280;45703;50.898;6.054;2024-03-23T11:40:26;99564.13;;;9.79;100.00
59825;BME280;45703;50.898;6.054;2024-03-23T11:42:56;99574.06;;;9.60;100.00
59825;BME280;45703;50.898;6.054;2024-03-23T11:45:21;99592.59;;;8.73;100.00
59825;BME280;45703;50.898;6.054;2024-03-23T11:47:46;99579.97;;;7.97;100.00
59825;BME280;45703;50.898;6.054;2024-03-23T11:50:19;99566.38;;;7.45;100.00
59825;BME280;45703;50.898;6.054;2024-03-23T11:52:44;99581.88;;;7.23;100.00
59825;BME280;45703;50.898;6.054;2024-03-23T11:55:10;99567.19;;;7.21;100.00
59825;BME280;45703;50.898;6.054;2024-03-23T11:57:35;99565.13;;;7.23;100.00
59825;BME280;45703;50.898;6.054;2024-03-23T12:00:01;99572.88;;;7.24;100.00
59825;BME280;45703;50.898;6.054;2024-03-23T12:02:26;99568.69;;;7.35;100.00
59825;BME280;45703;50.898;6.054;2024-03-23T12:04:51;99561.59;;;7.53;100.00
59825;BME280;45703;50.898;6.054;2024-03-23T12:07:19;99563.78;;;7.81;100.00
59825;BME280;45703;50.898;6.054;2024-03-23T12:09:46;99564.75;;;8.04;100.00
59825;BME280;45703;50.898;6.054;2024-03-23T12:12:15;99553.63;;;8.50;100.00
59825;BME280;45703;50.898;6.054;2024-03-23T12:14:42;99564.09;;;8.62;100.00
59825;BME280;45703;50.898;6.054;2024-03-23T12:17:12;99549.25;;;8.84;100.00
59825;BME280;45703;50.898;6.054;2024-03-23T12:19:38;99548.84;;;8.99;100.00
59825;BME280;45703;50.898;6.054;2024-03-23T12:22:07;99545.66;;;8.90;100.00
59825;BME280;45703;50.898;6.054;2024-03-23T12:24:34;99537.94;;;8.89;100.00
59825;BME280;45703;50.898;6.054;2024-03-23T12:27:03;99539.38;;;8.73;100.00
59825;BME280;45703;50.898;6.054;2024-03-23T12:29:34;99523.22;;;8.86;100.00
59825;BME280;45703;50.898;6.054;2024-03-23T12:32:00;99528.06;;;8.89;100.00
59825;BME280;45703;50.898;6.054;2024-03-23T12:34:26;99532.16;;;8.92;100.00
59825;BME280;45703;50.898;6.054;2024-03-23T12:36:52;99519.91;;;9.02;100.00
59825;BME280;45703;50.898;6.054;2024-03-23T12:39:17;99522.16;;;9.28;100.00
59825;BME280;45703;50.898;6.054;2024-03-23T12:41:43;99517.31;;;9.48;100.00
59825;BME280;45703;50.898;6.054;2024-03-23T12:44:09;99519.84;;;9.66;100.00
59825;BME280;45703;50.898;6.054;2024-03-23T12:46:39;99524.25;;;9.84;100.00
59825;BME280;45703;50.898;6.054;2024-03-23T12:49:05;99528.28;;;9.98;100.00
59825;BME280;45703;50.898;6.054;2024-03-23T12:51:31;99520.66;;;9.90;100.00
59825;BME280;45703;50.898;6.054;2024-03-23T12:53:57;99535.13;;;9.48;100.00
59825;BME280;45703;50.898;6.054;2024-03-23T12:56:22;99530.16;;;8.87;100.00
59825;BME280;45703;50.898;6.054;2024-03-23T12:58:48;99534.56;;;8.35;100.00
59825;BME280;45703;50.898;6.054;2024-03-23T13:01:19;99531.97;;;7.92;100.00
59825;BME280;45703;50.898;6.054;2024-03-23T13:03:46;99531.78;;;7.03;100.00
59825;BME280;45703;50.898;6.054;2024-03-23T13:06:12;99520.50;;;6.83;100.00
59825;BME280;45703;50.898;6.054;2024-03-23T13:08:37;99528.94;;;6.73;100.00
59825;BME280;45703;50.898;6.054;2024-03-23T13:11:03;99508.28;;;6.82;100.00
59825;BME280;45703;50.898;6.054;2024-03-23T13:13:28;99507.63;;;6.86;100.00
59825;BME280;45703;50.898;6.054;2024-03-23T13:15:53;99509.69;;;7.08;100.00
59825;BME280;45703;50.898;6.054;2024-03-23T13:18:19;99509.31;;;7.29;100.00
59825;BME280;45703;50.898;6.054;2024-03-23T13:20:44;99507.97;;;7.45;100.00
59825;BME280;45703;50.898;6.054;2024-03-23T13:23:09;99480.75;;;7.49;100.00
59825;BME280;45703;50.898;6.054;2024-03-23T13:25:35;99484.22;;;7.68;100.00
59825;BME280;45703;50.898;6.054;2024-03-23T13:28:01;99477.72;;;7.82;100.00
59825;BME280;45703;50.898;6.054;2024-03-23T13:30:27;99480.25;;;7.95;100.00
59825;BME280;45703;50.898;6.054;2024-03-23T13:32:52;99478.94;;;8.15;100.00
59825;BME280;45703;50.898;6.054;2024-03-23T13:35:18;99474.00;;;8.37;100.00
59825;BME280;45703;50.898;6.054;2024-03-23T13:37:43;99467.09;;;8.47;100.00
59825;BME280;45703;50.898;6.054;2024-03-23T13:40:09;99462.88;;;8.57;100.00
59825;BME280;45703;50.898;6.054;2024-03-23T13:42:34;99451.91;;;8.65;100.00
59825;BME280;45703;50.898;6.054;2024-03-23T13:45:05;99451.97;;;8.59;100.00
59825;BME280;45703;50.898;6.054;2024-03-23T13:47:30;99467.16;;;8.58;100.00
59825;BME280;45703;50.898;6.054;2024-03-23T13:49:56;99468.50;;;8.50;100.00
59825;BME280;45703;50.898;6.054;2024-03-23T13:52:21;99460.28;;;8.22;100.00
59825;BME280;45703;50.898;6.054;2024-03-23T13:54:51;99488.34;;;7.46;100.00